createdAt,value
2022-09-03T00:01:39.953Z,23.45
2022-09-03T00:04:57.463Z,23.44
2022-09-03T00:08:14.506Z,23.43
2022-09-03T00:11:23.460Z,23.44
2022-09-03T00:14:35.771Z,23.44
2022-09-03T00:17:56.014Z,23.42
2022-09-03T00:21:08.967Z,23.42
2022-09-03T00:24:15.044Z,23.42
2022-09-03T00:27:21.981Z,23.42
2022-09-03T00:30:24.531Z,23.40
2022-09-03T00:33:30.719Z,23.40
2022-09-03T00:36:46.029Z,23.38
2022-09-03T00:39:48.554Z,23.39
2022-09-03T00:43:06.921Z,23.37
2022-09-03T00:46:22.416Z,23.37
2022-09-03T00:49:39.602Z,23.37
2022-09-03T00:52:52.135Z,23.37
2022-09-03T00:56:00.192Z,23.35
2022-09-03T00:59:28.891Z,23.34
2022-09-03T01:03:08.996Z,23.35
2022-09-03T01:06:20.236Z,23.32
2022-09-03T01:09:48.204Z,23.31
2022-09-03T01:13:16.150Z,23.28
2022-09-03T01:16:30.567Z,23.29
2022-09-03T01:19:57.656Z,23.27
2022-09-03T01:23:39.892Z,23.27
2022-09-03T01:27:08.821Z,23.25
2022-09-03T01:30:17.076Z,23.27
2022-09-03T01:33:38.801Z,23.28
2022-09-03T01:36:54.756Z,23.27
2022-09-03T01:40:03.705Z,23.27
2022-09-03T01:43:24.434Z,23.26
2022-09-03T01:46:39.191Z,23.24
2022-09-03T01:49:57.925Z,23.27
2022-09-03T01:53:23.850Z,23.23
2022-09-03T01:56:33.517Z,23.23
2022-09-03T01:59:43.711Z,23.22
2022-09-03T02:02:48.070Z,23.21
2022-09-03T02:05:53.195Z,23.21
2022-09-03T02:08:55.343Z,23.21
2022-09-03T02:12:06.032Z,23.20
2022-09-03T02:15:14.619Z,23.20
2022-09-03T02:18:27.003Z,23.20
2022-09-03T02:21:35.389Z,23.18
2022-09-03T02:24:37.584Z,23.18
2022-09-03T02:27:40.013Z,23.18
2022-09-03T02:30:42.928Z,23.20
2022-09-03T02:33:47.953Z,23.16
2022-09-03T02:36:50.211Z,23.17
2022-09-03T02:39:52.480Z,23.17
2022-09-03T02:42:54.985Z,23.18
2022-09-03T02:46:02.630Z,23.15
2022-09-03T02:49:05.409Z,23.15
2022-09-03T02:52:11.935Z,23.15
2022-09-03T02:55:14.148Z,23.15
2022-09-03T02:58:16.503Z,23.12
2022-09-03T03:01:23.847Z,23.14
2022-09-03T03:04:26.839Z,23.16
2022-09-03T03:07:35.223Z,23.16
2022-09-03T03:10:38.190Z,23.16
2022-09-03T03:13:40.436Z,23.12
2022-09-03T03:16:42.825Z,23.09
2022-09-03T03:19:45.036Z,23.08
2022-09-03T03:22:47.279Z,23.08
2022-09-03T03:25:49.445Z,23.09
2022-09-03T03:28:57.474Z,23.08
2022-09-03T03:31:59.645Z,23.10
2022-09-03T03:35:01.904Z,23.10
2022-09-03T03:38:05.082Z,23.10
2022-09-03T03:41:22.187Z,23.10
2022-09-03T03:44:24.329Z,23.12
2022-09-03T03:47:26.461Z,23.10
2022-09-03T03:50:28.633Z,23.08
2022-09-03T03:53:31.674Z,23.07
2022-09-03T03:56:34.808Z,23.08
2022-09-03T03:59:37.189Z,23.08
2022-09-03T04:02:39.464Z,23.08
2022-09-03T04:05:46.236Z,23.10
2022-09-03T04:08:50.971Z,23.08
2022-09-03T04:11:53.165Z,23.05
2022-09-03T04:14:55.294Z,23.05
2022-09-03T04:17:57.529Z,23.06
2022-09-03T04:21:05.076Z,23.08
2022-09-03T04:24:07.378Z,23.06
2022-09-03T04:27:09.615Z,23.07
2022-09-03T04:30:12.321Z,23.05
2022-09-03T04:33:16.121Z,23.05
2022-09-03T04:36:24.333Z,23.06
2022-09-03T04:39:26.819Z,23.03
2022-09-03T04:42:29.071Z,23.02
2022-09-03T04:45:32.371Z,23.02
2022-09-03T04:48:37.772Z,22.98
2022-09-03T04:51:40.664Z,23.01
2022-09-03T04:54:43.245Z,23.01
2022-09-03T04:57:45.429Z,23.01
2022-09-03T05:00:47.691Z,23.00
2022-09-03T05:03:53.265Z,23.00
2022-09-03T05:06:55.407Z,23.01
2022-09-03T05:09:58.580Z,22.98
2022-09-03T05:13:07.826Z,22.98
2022-09-03T05:16:11.583Z,22.98
2022-09-03T05:19:13.781Z,22.97
2022-09-03T05:22:21.180Z,22.98
2022-09-03T05:25:24.075Z,22.97
2022-09-03T05:28:30.668Z,22.96
2022-09-03T05:31:33.092Z,22.99
2022-09-03T05:34:35.203Z,22.94
2022-09-03T05:37:38.101Z,22.96
2022-09-03T05:40:41.580Z,22.97
2022-09-03T05:43:43.979Z,22.96
2022-09-03T05:46:46.063Z,22.97
2022-09-03T05:49:48.131Z,22.95
2022-09-03T05:52:50.164Z,22.97
2022-09-03T05:55:59.610Z,22.97
2022-09-03T05:59:05.793Z,22.97
2022-09-03T06:02:07.926Z,22.97
2022-09-03T06:05:10.098Z,22.96
2022-09-03T06:08:12.717Z,22.94
2022-09-03T06:11:14.857Z,22.48
2022-09-03T06:14:17.318Z,22.19
2022-09-03T06:17:19.551Z,22.18
2022-09-03T06:20:21.769Z,22.16
2022-09-03T06:23:24.631Z,22.20
2022-09-03T06:26:28.522Z,22.16
2022-09-03T06:29:30.786Z,22.05
2022-09-03T06:32:32.937Z,22.24
2022-09-03T06:35:41.712Z,22.12
2022-09-03T06:38:46.670Z,21.99
2022-09-03T06:41:51.957Z,21.93
2022-09-03T06:44:54.443Z,21.96
2022-09-03T06:47:56.626Z,21.98
2022-09-03T06:51:01.415Z,21.96
2022-09-03T06:54:06.444Z,21.99
2022-09-03T06:57:08.485Z,21.87
2022-09-03T07:00:11.376Z,21.88
2022-09-03T07:03:13.458Z,21.97
2022-09-03T07:06:18.029Z,22.08
2022-09-03T07:09:20.142Z,22.21
2022-09-03T07:12:23.360Z,22.36
2022-09-03T07:15:26.316Z,22.36
2022-09-03T07:18:28.521Z,22.36
2022-09-03T07:21:33.959Z,22.48
2022-09-03T07:24:37.717Z,22.26
2022-09-03T07:27:39.760Z,22.18
2022-09-03T07:30:41.955Z,22.25
2022-09-03T07:33:44.125Z,22.21
2022-09-03T07:36:49.965Z,22.23
2022-09-03T07:39:53.097Z,22.07
2022-09-03T07:43:02.201Z,22.09
2022-09-03T07:46:04.441Z,22.42
2022-09-03T07:49:06.938Z,22.62
2022-09-03T07:52:11.986Z,22.71
2022-09-03T07:55:16.408Z,22.76
2022-09-03T07:58:18.699Z,22.81
2022-09-03T08:01:22.298Z,22.79
2022-09-03T08:04:24.368Z,22.84
2022-09-03T08:07:26.646Z,22.91
2022-09-03T08:10:31.079Z,23.06
2022-09-03T08:13:33.936Z,23.13
2022-09-03T08:16:41.924Z,23.16
2022-09-03T08:19:46.244Z,23.18
2022-09-03T08:22:48.849Z,23.14
2022-09-03T08:26:01.988Z,23.09
2022-09-03T08:29:05.625Z,22.39
2022-09-03T08:32:07.712Z,22.22
2022-09-03T08:35:09.903Z,22.29
2022-09-03T08:38:12.904Z,22.51
2022-09-03T08:41:23.720Z,22.68
2022-09-03T08:44:28.143Z,22.75
2022-09-03T08:47:38.915Z,22.93
2022-09-03T08:50:45.179Z,22.84
2022-09-03T08:53:55.245Z,22.81
2022-09-03T08:57:01.511Z,22.66
2022-09-03T09:00:03.880Z,22.66
2022-09-03T09:03:35.351Z,22.70
2022-09-03T09:06:50.821Z,22.46
2022-09-03T09:10:21.862Z,22.51
2022-09-03T09:13:40.164Z,22.57
2022-09-03T09:16:55.090Z,22.78
2022-09-03T09:20:12.363Z,22.80
2022-09-03T09:23:24.319Z,22.82
2022-09-03T09:26:29.223Z,22.80
2022-09-03T09:29:39.152Z,22.82
2022-09-03T09:32:41.244Z,22.86
2022-09-03T09:35:44.436Z,22.86
2022-09-03T09:38:48.660Z,22.91
2022-09-03T09:42:09.512Z,22.75
2022-09-03T09:45:12.201Z,22.77
2022-09-03T09:48:23.543Z,22.78
2022-09-03T09:51:33.059Z,22.76
2022-09-03T09:54:35.139Z,22.78
2022-09-03T09:57:38.704Z,22.60
2022-09-03T10:00:42.691Z,22.66
2022-09-03T10:03:58.371Z,22.72
2022-09-03T10:07:20.503Z,22.75
2022-09-03T10:10:23.035Z,22.82
2022-09-03T10:13:34.611Z,22.81
2022-09-03T10:16:40.292Z,22.69
2022-09-03T10:20:06.965Z,22.61
2022-09-03T10:23:25.610Z,22.49
2022-09-03T10:26:32.197Z,22.57
2022-09-03T10:29:34.776Z,22.62
2022-09-03T10:33:05.915Z,22.63
2022-09-03T10:36:52.040Z,22.42
2022-09-03T10:40:03.120Z,22.43
2022-09-03T10:43:45.873Z,22.53
2022-09-03T10:47:31.855Z,22.58
2022-09-03T10:50:46.470Z,22.57
2022-09-03T10:54:06.142Z,22.51
2022-09-03T10:57:31.192Z,22.37
2022-09-03T11:00:34.682Z,22.34
2022-09-03T11:03:45.653Z,22.38
2022-09-03T11:06:55.392Z,22.31
2022-09-03T11:10:19.151Z,22.16
2022-09-03T11:13:37.388Z,21.77
2022-09-03T11:16:48.525Z,21.68
2022-09-03T11:20:12.606Z,21.47
2022-09-03T11:23:15.178Z,21.22
2022-09-03T11:26:20.329Z,21.28
2022-09-03T11:29:38.203Z,21.15
2022-09-03T11:33:05.434Z,21.27
2022-09-03T11:36:07.647Z,21.32
2022-09-03T11:39:24.269Z,21.01
2022-09-03T11:42:44.545Z,21.21
2022-09-03T11:45:46.752Z,21.27
2022-09-03T11:49:11.910Z,21.34
2022-09-03T11:52:13.962Z,21.45
2022-09-03T11:55:37.633Z,21.32
2022-09-03T11:58:43.491Z,21.68
2022-09-03T12:01:53.273Z,21.76
2022-09-03T12:05:26.150Z,21.69
2022-09-03T12:09:05.732Z,21.53
2022-09-03T12:12:35.530Z,21.69
2022-09-03T12:16:15.621Z,21.66
2022-09-03T12:19:37.431Z,21.48
2022-09-03T12:22:40.742Z,21.51
2022-09-03T12:25:47.977Z,21.57
2022-09-03T12:28:52.890Z,21.67
2022-09-03T12:31:59.246Z,21.97
2022-09-03T12:35:58.189Z,21.99
2022-09-03T12:39:07.627Z,22.40
2022-09-03T12:42:11.855Z,22.34
2022-09-03T12:45:16.570Z,22.18
2022-09-03T12:48:20.406Z,22.50
2022-09-03T12:54:53.093Z,22.78
2022-09-03T12:58:13.810Z,22.75
2022-09-03T13:01:25.382Z,22.65
2022-09-03T13:04:33.455Z,22.41
2022-09-03T13:07:38.863Z,22.34
2022-09-03T13:10:53.373Z,22.22
2022-09-03T13:14:11.065Z,22.04
2022-09-03T13:17:15.940Z,22.02
2022-09-03T13:20:46.873Z,22.10
2022-09-03T13:24:10.187Z,22.05
2022-09-03T13:27:18.561Z,21.85
2022-09-03T13:30:25.441Z,21.81
2022-09-03T13:33:40.318Z,22.05
2022-09-03T13:37:12.996Z,21.97
2022-09-03T13:40:24.459Z,22.03
2022-09-03T13:43:42.685Z,22.01
2022-09-03T13:47:10.162Z,21.89
2022-09-03T13:50:23.440Z,22.12
2022-09-03T13:53:41.228Z,22.18
2022-09-03T13:57:01.841Z,22.19
2022-09-03T14:00:10.513Z,22.20
2022-09-03T14:03:35.377Z,22.21
2022-09-03T14:06:56.806Z,22.20
2022-09-03T14:10:14.439Z,22.03
2022-09-03T14:13:46.434Z,22.26
2022-09-03T14:16:59.658Z,22.34
2022-09-03T14:20:30.791Z,22.31
2022-09-03T14:23:47.296Z,22.21
2022-09-03T14:26:55.979Z,22.26
2022-09-03T14:30:04.994Z,22.43
2022-09-03T14:33:30.720Z,22.44
2022-09-03T14:36:38.732Z,22.55
2022-09-03T14:40:02.434Z,22.79
2022-09-03T14:43:28.616Z,22.58
2022-09-03T14:46:36.895Z,22.44
2022-09-03T14:50:14.525Z,22.44
2022-09-03T14:53:42.095Z,22.58
2022-09-03T14:57:00.090Z,22.67
2022-09-03T15:00:19.941Z,22.86
2022-09-03T15:03:40.449Z,22.82
2022-09-03T15:07:06.383Z,22.73
2022-09-03T15:10:26.937Z,22.69
2022-09-03T15:13:42.513Z,22.79
2022-09-03T15:17:06.034Z,22.78
2022-09-03T15:20:16.920Z,22.86
2022-09-03T15:23:47.268Z,23.03
2022-09-03T15:26:55.139Z,22.96
2022-09-03T15:30:10.539Z,23.21
2022-09-03T15:33:37.143Z,23.05
2022-09-03T15:36:44.696Z,23.10
2022-09-03T15:39:57.558Z,23.11
2022-09-03T15:43:21.789Z,23.12
2022-09-03T15:46:39.516Z,23.24
2022-09-03T15:49:59.286Z,23.24
2022-09-03T15:53:34.319Z,23.34
2022-09-03T15:56:58.754Z,23.34
2022-09-03T16:00:30.728Z,23.34
2022-09-03T16:03:59.555Z,23.36
2022-09-03T16:07:21.344Z,23.37
2022-09-03T16:10:39.866Z,23.18
2022-09-03T16:14:14.988Z,23.26
2022-09-03T16:17:28.358Z,23.34
2022-09-03T16:20:46.281Z,23.24
2022-09-03T16:24:02.004Z,23.32
2022-09-03T16:27:11.201Z,23.53
2022-09-03T16:30:22.331Z,23.61
2022-09-03T16:33:32.140Z,23.58
2022-09-03T16:36:50.246Z,23.60
2022-09-03T16:40:01.329Z,23.67
2022-09-03T16:43:40.287Z,23.70
2022-09-03T16:47:04.822Z,23.76
2022-09-03T16:50:32.731Z,23.81
2022-09-03T16:54:05.902Z,23.76
2022-09-03T16:57:15.632Z,23.71
2022-09-03T17:00:21.284Z,23.66
2022-09-03T17:03:48.225Z,23.61
2022-09-03T17:07:04.786Z,23.61
2022-09-03T17:10:27.684Z,23.66
2022-09-03T17:13:57.444Z,23.62
2022-09-03T17:17:11.862Z,23.10
2022-09-03T17:20:47.150Z,22.91
2022-09-03T17:24:32.848Z,22.78
2022-09-03T17:28:00.852Z,22.75
2022-09-03T17:31:16.139Z,22.70
2022-09-03T17:34:30.466Z,22.69
2022-09-03T17:38:14.946Z,22.67
2022-09-03T17:41:39.015Z,22.58
2022-09-03T17:44:54.485Z,22.60
2022-09-03T17:48:16.036Z,22.57
2022-09-03T17:51:47.455Z,22.61
2022-09-03T17:54:53.295Z,22.54
2022-09-03T17:58:11.184Z,22.50
2022-09-03T18:01:21.835Z,22.49
2022-09-03T18:04:55.019Z,22.48
2022-09-03T18:08:15.400Z,22.40
2022-09-03T18:11:51.111Z,22.38
2022-09-03T18:15:05.485Z,22.40
2022-09-03T18:18:26.567Z,22.38
2022-09-03T18:21:51.724Z,22.36
2022-09-03T18:25:18.927Z,22.34
2022-09-03T18:29:04.639Z,22.20
2022-09-03T18:32:25.486Z,22.20
2022-09-03T18:35:49.233Z,22.23
2022-09-03T18:39:09.995Z,22.16
2022-09-03T18:42:50.116Z,22.20
2022-09-03T18:50:18.731Z,22.65
2022-09-03T18:54:10.695Z,22.73
2022-09-03T18:57:41.014Z,22.83
2022-09-03T19:01:24.923Z,22.85
2022-09-03T19:05:18.083Z,22.88
2022-09-03T19:08:38.892Z,22.88
2022-09-03T19:12:31.898Z,22.90
2022-09-03T19:16:26.747Z,22.92
2022-09-03T19:20:10.247Z,22.91
2022-09-03T19:23:31.356Z,22.88
2022-09-03T19:26:57.872Z,22.90
2022-09-03T19:30:39.686Z,22.88
2022-09-03T19:34:31.852Z,22.88
2022-09-03T19:38:10.560Z,22.86
2022-09-03T19:41:52.837Z,22.90
2022-09-03T19:45:22.874Z,22.90
2022-09-03T19:49:04.914Z,22.88
2022-09-03T19:52:46.108Z,22.88
2022-09-03T19:56:12.917Z,22.86
2022-09-03T19:59:39.470Z,22.85
2022-09-03T20:03:01.022Z,22.88
2022-09-03T20:06:24.540Z,22.93
2022-09-03T20:09:49.435Z,22.94
2022-09-03T20:13:03.391Z,22.90
2022-09-03T20:16:36.023Z,22.88
2022-09-03T20:20:04.422Z,22.87
2022-09-03T20:23:21.756Z,22.87
2022-09-03T20:26:59.185Z,22.84
2022-09-03T20:30:06.430Z,22.85
2022-09-03T20:33:22.695Z,22.83
2022-09-03T20:36:40.581Z,22.80
2022-09-03T20:40:25.757Z,22.83
2022-09-03T20:43:47.477Z,22.78
2022-09-03T20:47:21.794Z,22.78
2022-09-03T20:50:40.079Z,22.79
2022-09-03T20:54:09.497Z,22.83
2022-09-03T20:57:44.717Z,22.81
2022-09-03T21:01:03.835Z,22.78
2022-09-03T21:04:29.984Z,22.81
2022-09-03T21:07:58.419Z,22.78
2022-09-03T21:11:28.716Z,22.78
2022-09-03T21:14:39.603Z,22.77
2022-09-03T21:17:56.582Z,22.77
2022-09-03T21:21:13.600Z,22.77
2022-09-03T21:24:22.901Z,22.77
2022-09-03T21:27:41.791Z,22.75
2022-09-03T21:30:48.357Z,22.75
2022-09-03T21:33:58.385Z,22.75
2022-09-03T21:37:03.370Z,22.75
2022-09-03T21:40:09.288Z,22.71
2022-09-03T21:43:44.171Z,22.75
2022-09-03T21:46:59.669Z,22.72
2022-09-03T21:50:28.250Z,22.70
2022-09-03T21:53:38.936Z,22.71
2022-09-03T21:57:09.166Z,22.73
2022-09-03T22:00:17.779Z,22.73
2022-09-03T22:03:20.009Z,22.68
2022-09-03T22:06:53.499Z,22.68
2022-09-03T22:10:03.772Z,22.71
2022-09-03T22:13:35.628Z,22.71
2022-09-03T22:17:05.366Z,22.67
2022-09-03T22:20:10.191Z,22.67
2022-09-03T22:23:20.267Z,22.67
2022-09-03T22:26:49.716Z,22.66
2022-09-03T22:30:03.310Z,22.64
2022-09-03T22:33:37.612Z,22.63
2022-09-03T22:36:52.919Z,22.62
2022-09-03T22:40:14.884Z,22.62
2022-09-03T22:43:43.129Z,22.60
2022-09-03T22:47:01.021Z,22.57
2022-09-03T22:50:08.856Z,22.63
2022-09-03T22:53:41.612Z,22.66
2022-09-03T22:56:44.511Z,22.62
2022-09-03T23:00:07.310Z,22.62
2022-09-03T23:03:16.892Z,22.60
2022-09-03T23:06:43.895Z,22.58
2022-09-03T23:10:00.009Z,22.58
2022-09-03T23:13:13.620Z,22.54
2022-09-03T23:16:28.362Z,22.60
2022-09-03T23:19:40.547Z,22.56
2022-09-03T23:23:11.767Z,22.56
2022-09-03T23:26:27.401Z,22.60
2022-09-03T23:29:40.327Z,22.61
2022-09-03T23:32:43.823Z,22.56
2022-09-03T23:35:55.052Z,22.60
2022-09-03T23:39:14.039Z,22.60
2022-09-03T23:42:27.176Z,22.60
2022-09-03T23:45:55.555Z,22.58
2022-09-03T23:49:20.456Z,22.57
2022-09-03T23:52:46.198Z,22.56
2022-09-03T23:55:59.655Z,22.56
2022-09-03T23:59:37.681Z,22.55
